Time;durP1;ratioP1;P1;durP2;ratioP2;P2;SDS_P1;SDS_P2;PMS_P1;PMS_P2;Temp;Humidity;BMP_temperature;BMP_pressure;BME280_temperature;BME280_humidity;BME280_pressure;Samples;Min_cycle;Max_cycle;Signal;HPM_P1;HPM_P2
2022/04/23 00:00:33;;;;;;;3.65;1.27;;;24.10;28.70;;;;;;5068349;28;20411;-64
2022/04/23 00:03:00;;;;;;;24.40;2.08;;;24.10;28.90;;;;;;5085027;28;20241;-62
2022/04/23 00:05:28;;;;;;;5.35;1.50;;;24.10;29.00;;;;;;5050000;28;20073;-64
2022/04/23 00:07:54;;;;;;;13.65;1.58;;;24.10;29.00;;;;;;5070477;28;20072;-64
2022/04/23 00:10:22;;;;;;;13.10;1.90;;;23.90;28.90;;;;;;5069480;28;20092;-63
2022/04/23 00:12:50;;;;;;;12.25;1.80;;;23.70;29.40;;;;;;5081690;28;20068;-64
2022/04/23 00:15:16;;;;;;;10.27;1.92;;;23.70;29.20;;;;;;5067434;28;20159;-63
2022/04/23 00:17:46;;;;;;;14.80;2.00;;;23.60;29.90;;;;;;5084244;28;20437;-63
2022/04/23 00:20:12;;;;;;;21.52;2.53;;;23.60;30.00;;;;;;5073485;28;20084;-62
2022/04/23 00:22:40;;;;;;;20.13;2.20;;;23.50;30.20;;;;;;5067973;28;20467;-63
2022/04/23 00:25:07;;;;;;;18.33;2.28;;;23.50;30.10;;;;;;5068535;28;20071;-64
2022/04/23 00:27:33;;;;;;;16.55;1.83;;;23.40;30.30;;;;;;5067740;28;20099;-62
2022/04/23 00:30:00;;;;;;;24.52;3.30;;;23.20;30.60;;;;;;5067709;28;20077;-62
2022/04/23 00:32:26;;;;;;;16.50;2.22;;;23.40;30.80;;;;;;5069463;28;20514;-64
2022/04/23 00:34:53;;;;;;;12.68;1.60;;;23.50;30.20;;;;;;5067642;28;20144;-63
2022/04/23 00:37:20;;;;;;;6.63;1.75;;;23.50;30.00;;;;;;5083759;28;20076;-62
2022/04/23 00:39:48;;;;;;;9.98;1.90;;;23.30;30.00;;;;;;5068458;28;20099;-63
2022/04/23 00:42:17;;;;;;;15.82;2.08;;;23.20;30.60;;;;;;5067301;28;20777;-65
2022/04/23 00:44:44;;;;;;;13.88;2.25;;;23.20;30.80;;;;;;5069167;28;20556;-63
2022/04/23 00:47:10;;;;;;;13.32;2.20;;;23.10;30.70;;;;;;5084962;28;20479;-62
2022/04/23 00:49:37;;;;;;;15.65;1.80;;;23.10;31.00;;;;;;5084805;28;20125;-63
2022/04/23 00:52:04;;;;;;;18.35;2.92;;;22.70;31.00;;;;;;5067430;28;20085;-62
2022/04/23 00:54:31;;;;;;;19.38;2.47;;;22.80;31.60;;;;;;5084573;28;20078;-62
2022/04/23 00:56:58;;;;;;;15.68;2.70;;;22.70;31.50;;;;;;5067777;28;20144;-65
2022/04/23 00:59:28;;;;;;;15.93;1.85;;;22.40;31.40;;;;;;5083743;28;20559;-63
2022/04/23 01:01:54;;;;;;;18.17;2.13;;;22.30;31.50;;;;;;5067019;28;20079;-63
2022/04/23 01:04:23;;;;;;;13.25;1.98;;;22.30;31.60;;;;;;5069842;28;20079;-63
2022/04/23 01:06:50;;;;;;;10.18;1.60;;;22.30;31.20;;;;;;5068933;28;20068;-64
2022/04/23 01:09:16;;;;;;;15.93;2.00;;;22.30;31.10;;;;;;5067051;28;20099;-63
2022/04/23 01:11:43;;;;;;;15.05;2.05;;;22.30;31.30;;;;;;5072427;28;20079;-63
2022/04/23 01:14:10;;;;;;;11.77;2.13;;;22.10;32.00;;;;;;5081392;28;20092;-64
2022/04/23 01:16:39;;;;;;;9.95;1.83;;;21.90;32.50;;;;;;5069611;28;20095;-63
2022/04/23 01:19:06;;;;;;;35.58;3.80;;;21.80;33.10;;;;;;5078556;28;20492;-64
2022/04/23 01:21:33;;;;;;;14.48;2.22;;;21.50;33.70;;;;;;5076834;28;20072;-64
2022/04/23 01:24:01;;;;;;;18.48;1.90;;;21.40;33.90;;;;;;5076824;28;20128;-63
2022/04/23 01:26:31;;;;;;;13.05;2.47;;;21.40;34.20;;;;;;5075134;28;20072;-64
2022/04/23 01:28:59;;;;;;;21.45;2.30;;;21.30;34.50;;;;;;5075836;28;20069;-66
2022/04/23 01:31:26;;;;;;;15.95;2.40;;;21.20;34.50;;;;;;5091366;28;20624;-64
2022/04/23 01:33:53;;;;;;;17.45;2.25;;;21.10;34.30;;;;;;5087389;28;20122;-63
2022/04/23 01:36:20;;;;;;;7.93;2.08;;;21.10;34.90;;;;;;5090195;28;20096;-65
2022/04/23 01:38:47;;;;;;;23.85;6.90;;;21.10;34.50;;;;;;5073518;28;20263;-62
2022/04/23 01:41:14;;;;;;;14.75;2.20;;;21.10;34.50;;;;;;5073582;28;20159;-64
2022/04/23 01:43:40;;;;;;;13.63;2.35;;;21.10;34.40;;;;;;5067664;28;20067;-65
2022/04/23 01:46:07;;;;;;;19.92;2.33;;;20.90;34.70;;;;;;5072593;28;20131;-65
2022/04/23 01:48:33;;;;;;;7.82;2.05;;;20.80;35.30;;;;;;5075180;28;20418;-65
2022/04/23 01:51:00;;;;;;;27.45;4.43;;;20.70;35.60;;;;;;5073558;28;20076;-65
2022/04/23 01:53:26;;;;;;;13.00;2.10;;;20.70;35.60;;;;;;5087879;28;20104;-63
2022/04/23 01:55:54;;;;;;;16.77;2.85;;;20.60;35.80;;;;;;5072294;28;20108;-62
2022/04/23 01:58:21;;;;;;;16.88;3.25;;;20.50;36.30;;;;;;5086002;28;20441;-63
2022/04/23 02:00:49;;;;;;;38.42;3.45;;;20.50;36.60;;;;;;5075429;28;20076;-64
2022/04/23 02:03:15;;;;;;;18.00;2.90;;;20.40;36.70;;;;;;5086500;28;20070;-62
2022/04/23 02:05:42;;;;;;;15.00;3.40;;;20.30;36.80;;;;;;5070309;28;20065;-65
2022/04/23 02:08:09;;;;;;;25.58;2.75;;;20.20;37.10;;;;;;5073047;28;20514;-64
2022/04/23 02:10:35;;;;;;;19.52;2.88;;;20.20;36.90;;;;;;5073551;28;20159;-66
2022/04/23 02:13:02;;;;;;;35.47;3.58;;;20.20;36.70;;;;;;5070349;28;20084;-64
2022/04/23 02:15:29;;;;;;;34.60;4.05;;;20.10;36.50;;;;;;5052065;28;20100;-64
2022/04/23 02:17:55;;;;;;;17.65;2.65;;;20.10;36.70;;;;;;5085021;28;20068;-63
2022/04/23 02:20:23;;;;;;;13.65;2.60;;;20.10;36.80;;;;;;5087600;28;20102;-62
2022/04/23 02:22:49;;;;;;;14.93;2.28;;;20.10;36.60;;;;;;5070639;28;20545;-62
2022/04/23 02:25:16;;;;;;;11.10;2.55;;;20.00;36.60;;;;;;5086279;28;20080;-64
2022/04/23 02:27:47;;;;;;;12.02;2.65;;;19.90;36.80;;;;;;5068916;28;20069;-63
2022/04/23 02:30:16;;;;;;;14.50;2.53;;;19.90;36.70;;;;;;5069439;28;20151;-62
2022/04/23 02:32:43;;;;;;;19.42;2.08;;;20.00;37.10;;;;;;5068747;28;20079;-65
2022/04/23 02:35:10;;;;;;;7.95;1.85;;;19.90;36.80;;;;;;5070051;28;20138;-63
2022/04/23 02:37:37;;;;;;;8.52;1.90;;;19.90;36.80;;;;;;5069604;28;20085;-62
2022/04/23 02:40:06;;;;;;;8.77;2.47;;;19.90;36.80;;;;;;5069580;28;20133;-62
2022/04/23 02:42:33;;;;;;;11.48;2.25;;;19.90;36.80;;;;;;5069345;28;20558;-61
2022/04/23 02:45:03;;;;;;;11.90;2.78;;;19.90;37.00;;;;;;5070979;28;20065;-65
2022/04/23 02:47:40;;;;;;;11.52;2.15;;;19.80;36.90;;;;;;5069622;28;20064;-63
2022/04/23 02:50:09;;;;;;;13.25;2.22;;;19.80;37.00;;;;;;5053330;28;20452;-64
2022/04/23 02:52:37;;;;;;;11.68;2.05;;;19.80;36.90;;;;;;5068318;28;20084;-63
2022/04/23 02:55:05;;;;;;;12.65;1.98;;;19.80;36.90;;;;;;5070789;28;20097;-63
2022/04/23 02:57:32;;;;;;;6.63;2.30;;;19.70;36.70;;;;;;5069456;28;20088;-62
2022/04/23 02:59:58;;;;;;;12.82;2.30;;;19.70;37.10;;;;;;5072382;28;20434;-63
2022/04/23 03:02:26;;;;;;;9.93;2.05;;;19.70;37.00;;;;;;5070707;28;20103;-62
2022/04/23 03:04:53;;;;;;;9.20;2.45;;;19.70;37.00;;;;;;5070840;28;20104;-66
2022/04/23 03:07:20;;;;;;;14.20;2.40;;;19.60;37.30;;;;;;5069889;28;20519;-64
2022/04/23 03:09:46;;;;;;;10.98;2.22;;;19.60;37.10;;;;;;5069231;28;20646;-67
2022/04/23 03:12:13;;;;;;;15.25;2.22;;;19.60;36.90;;;;;;5069686;28;20108;-67
2022/04/23 03:14:40;;;;;;;13.90;2.20;;;19.50;37.00;;;;;;5086068;28;20103;-66
2022/04/23 03:17:07;;;;;;;7.35;1.92;;;19.50;37.00;;;;;;5081777;28;20072;-66
2022/04/23 03:19:33;;;;;;;;;;;19.40;36.80;;;;;;5069576;28;20186;-69
2022/04/23 03:22:00;;;;;;;15.02;2.63;;;19.40;37.00;;;;;;5070435;28;20384;-67
2022/04/23 03:24:26;;;;;;;19.00;2.65;;;19.40;37.10;;;;;;5069829;28;20065;-67
2022/04/23 03:26:53;;;;;;;11.80;2.72;;;19.30;37.10;;;;;;5069082;28;20077;-67
2022/04/23 03:29:21;;;;;;;9.93;1.80;;;19.30;37.10;;;;;;5085713;28;20111;-68
2022/04/23 03:31:50;;;;;;;17.75;2.15;;;19.20;37.10;;;;;;5069586;28;20164;-67
2022/04/23 03:34:18;;;;;;;17.98;2.45;;;19.20;37.10;;;;;;5069338;28;20120;-66
2022/04/23 03:36:45;;;;;;;29.95;3.42;;;19.20;37.10;;;;;;5086318;28;20077;-69
2022/04/23 03:39:11;;;;;;;27.80;2.95;;;19.20;37.20;;;;;;5069076;28;20539;-67
2022/04/23 03:41:37;;;;;;;;;;;19.10;37.00;;;;;;5067606;28;20073;-67
2022/04/23 03:44:04;;;;;;;11.70;1.80;;;19.20;37.40;;;;;;5068880;28;20001;-66
2022/04/23 03:46:30;;;;;;;57.75;3.78;;;19.20;37.30;;;;;;5066940;28;20546;-66
2022/04/23 03:48:57;;;;;;;13.38;1.80;;;19.10;37.30;;;;;;5069987;28;20168;-63
2022/04/23 03:51:23;;;;;;;14.13;2.70;;;19.10;37.30;;;;;;5085858;28;20111;-63
2022/04/23 03:53:49;;;;;;;;;;;19.10;37.50;;;;;;5070456;28;20150;-63
2022/04/23 03:56:16;;;;;;;13.20;1.98;;;19.10;37.70;;;;;;5085135;28;19980;-62
2022/04/23 03:58:43;;;;;;;9.93;2.08;;;19.10;37.60;;;;;;5085029;28;20138;-63
2022/04/23 04:01:09;;;;;;;9.40;1.80;;;19.10;37.70;;;;;;5070036;28;20078;-61
2022/04/23 04:03:35;;;;;;;;;;;19.10;37.80;;;;;;5068248;28;20072;-62
2022/04/23 04:06:01;;;;;;;9.50;1.85;;;19.10;37.90;;;;;;5068791;28;19965;-62
2022/04/23 04:08:28;;;;;;;5.55;1.73;;;19.20;37.90;;;;;;5073825;28;20083;-63
2022/04/23 04:10:54;;;;;;;;;;;19.20;38.00;;;;;;5034778;28;20470;-63
2022/04/23 04:13:20;;;;;;;7.90;1.98;;;19.10;37.70;;;;;;5068439;28;20046;-64
2022/04/23 04:15:47;;;;;;;7.40;2.10;;;19.00;37.70;;;;;;5069596;28;20061;-63
2022/04/23 04:18:14;;;;;;;7.45;1.77;;;19.00;37.70;;;;;;5048706;28;20546;-62
2022/04/23 04:20:41;;;;;;;12.43;1.83;;;18.90;37.60;;;;;;5086837;28;20160;-66
2022/04/23 04:23:07;;;;;;;9.27;1.80;;;19.00;37.80;;;;;;5078859;28;20060;-64
2022/04/23 04:25:35;;;;;;;15.00;2.20;;;18.90;37.70;;;;;;5068542;28;20073;-61
2022/04/23 04:28:02;;;;;;;6.72;1.98;;;18.90;37.80;;;;;;5085113;28;20089;-64
2022/04/23 04:31:46;;;;;;;11.80;2.42;;;18.80;37.70;;;;;;5067399;28;20072;-62
2022/04/23 04:33:15;;;;;;;8.05;1.30;;;18.80;37.80;;;;;;5068451;28;20084;-63
2022/04/23 04:35:42;;;;;;;5.70;1.98;;;18.80;37.90;;;;;;5036049;28;20113;-65
2022/04/23 04:38:08;;;;;;;;;;;18.80;37.80;;;;;;5085113;28;20079;-62
2022/04/23 04:40:34;;;;;;;8.20;2.38;;;18.80;37.80;;;;;;5067102;28;20395;-64
2022/04/23 04:43:01;;;;;;;10.32;2.50;;;18.70;37.90;;;;;;5073574;28;20089;-64
2022/04/23 04:45:30;;;;;;;7.72;2.35;;;18.70;37.80;;;;;;5084509;28;20069;-62
2022/04/23 04:47:56;;;;;;;11.43;2.40;;;18.70;37.80;;;;;;5070465;28;20080;-64
2022/04/23 04:50:23;;;;;;;9.65;2.50;;;18.70;37.70;;;;;;5084667;28;20080;-63
2022/04/23 04:52:49;;;;;;;10.35;2.72;;;18.60;38.40;;;;;;5084188;28;20089;-62
2022/04/23 04:55:15;;;;;;;;;;;18.70;37.80;;;;;;5084623;28;20138;-61
2022/04/23 04:57:42;;;;;;;10.20;2.10;;;18.70;37.70;;;;;;5085442;28;19972;-62
2022/04/23 05:00:10;;;;;;;10.50;2.00;;;18.60;37.60;;;;;;5067762;28;20109;-60
2022/04/23 05:02:36;;;;;;;5.45;1.67;;;18.60;37.40;;;;;;5069017;28;20115;-62
2022/04/23 05:05:03;;;;;;;12.75;2.30;;;18.60;37.50;;;;;;5084885;28;20111;-62
2022/04/23 05:07:29;;;;;;;7.93;2.35;;;18.60;37.70;;;;;;5067892;28;20084;-64
2022/04/23 05:09:55;;;;;;;;;;;18.60;37.70;;;;;;5074092;28;20079;-62
2022/04/23 05:12:22;;;;;;;11.15;2.72;;;18.60;37.70;;;;;;5068187;28;19960;-63
2022/04/23 05:14:48;;;;;;;;;;;18.50;37.50;;;;;;5069303;28;20175;-63
2022/04/23 05:17:14;;;;;;;9.07;2.25;;;18.60;38.00;;;;;;5068366;28;19990;-64
2022/04/23 05:19:41;;;;;;;9.13;2.00;;;18.60;37.80;;;;;;5067738;28;20089;-62
2022/04/23 05:22:07;;;;;;;13.63;2.17;;;18.50;38.00;;;;;;5082819;28;20093;-63
2022/04/23 05:24:33;;;;;;;11.50;2.28;;;18.50;38.10;;;;;;5084366;28;20069;-62
2022/04/23 05:26:59;;;;;;;;;;;18.50;38.30;;;;;;5068567;28;20071;-62
2022/04/23 05:29:26;;;;;;;12.85;2.33;;;18.50;38.50;;;;;;5068942;28;19979;-62
2022/04/23 05:31:52;;;;;;;;;;;18.40;38.70;;;;;;5068348;28;20072;-63
2022/04/23 05:34:18;;;;;;;9.30;2.20;;;18.40;39.10;;;;;;5067385;28;20466;-61
2022/04/23 05:36:45;;;;;;;15.38;2.95;;;18.30;39.10;;;;;;5070554;28;20073;-63
2022/04/23 05:39:11;;;;;;;14.75;2.90;;;18.30;39.30;;;;;;5068515;28;20168;-63
2022/04/23 05:41:38;;;;;;;9.60;2.00;;;18.30;39.30;;;;;;5082901;28;20356;-62
2022/04/23 05:44:04;;;;;;;8.52;2.17;;;18.30;39.40;;;;;;5069407;28;20148;-64
2022/04/23 05:46:31;;;;;;;5.90;1.65;;;18.20;39.60;;;;;;5068277;28;20074;-62
2022/04/23 05:48:57;;;;;;;13.50;2.20;;;18.20;39.80;;;;;;5069857;28;20073;-63
2022/04/23 05:51:23;;;;;;;;;;;18.20;39.90;;;;;;5084858;28;20164;-64
2022/04/23 05:53:50;;;;;;;10.52;2.85;;;18.20;40.20;;;;;;5069701;28;20010;-66
2022/04/23 05:56:16;;;;;;;;;;;18.20;40.30;;;;;;5067450;28;20148;-63
2022/04/23 05:58:42;;;;;;;9.45;2.50;;;18.20;40.20;;;;;;5067538;28;19981;-65
2022/04/23 06:01:08;;;;;;;9.60;2.42;;;18.20;40.20;;;;;;5068955;28;20101;-63
2022/04/23 06:03:34;;;;;;;;;;;18.20;40.50;;;;;;5068372;28;20142;-63
2022/04/23 06:06:01;;;;;;;11.63;3.35;;;18.10;40.50;;;;;;5072828;28;19960;-66
2022/04/23 06:08:27;;;;;;;;;;;18.20;40.70;;;;;;5090045;28;20142;-64
2022/04/23 06:10:54;;;;;;;10.68;3.10;;;18.10;40.80;;;;;;5070973;28;19995;-62
2022/04/23 06:13:20;;;;;;;16.85;3.35;;;18.10;40.80;;;;;;5087754;28;20553;-64
2022/04/23 06:15:46;;;;;;;13.65;3.35;;;18.10;40.80;;;;;;5072115;28;20105;-63
2022/04/23 06:18:12;;;;;;;;;;;18.10;40.90;;;;;;5087926;28;20077;-65
2022/04/23 06:20:39;;;;;;;10.60;2.80;;;18.10;40.80;;;;;;5084445;28;19973;-64
2022/04/23 06:23:06;;;;;;;14.40;3.10;;;18.00;40.80;;;;;;5071700;28;20084;-64
2022/04/23 06:25:32;;;;;;;10.98;3.38;;;18.00;41.00;;;;;;5070651;28;20073;-62
2022/04/23 06:27:59;;;;;;;14.27;4.60;;;18.00;41.10;;;;;;5087398;28;20123;-66
2022/04/23 06:30:25;;;;;;;13.77;3.47;;;18.00;41.20;;;;;;5071196;28;20080;-67
2022/04/23 06:32:52;;;;;;;14.55;3.03;;;18.00;41.30;;;;;;5069873;28;20076;-66
2022/04/23 06:35:19;;;;;;;11.52;3.03;;;18.00;41.30;;;;;;5086887;28;20109;-65
2022/04/23 06:37:47;;;;;;;11.10;3.28;;;18.00;41.20;;;;;;5072085;28;20235;-65
2022/04/23 06:40:13;;;;;;;17.33;3.42;;;18.00;41.40;;;;;;5069271;28;20470;-65
2022/04/23 06:42:41;;;;;;;12.48;3.08;;;17.90;41.50;;;;;;5070861;28;20096;-66
2022/04/23 06:45:07;;;;;;;6.72;2.30;;;17.90;41.50;;;;;;5068688;28;20069;-66
2022/04/23 06:47:34;;;;;;;14.80;2.70;;;17.90;41.60;;;;;;5071094;28;20064;-66
2022/04/23 06:50:01;;;;;;;10.50;3.33;;;17.80;41.70;;;;;;5069362;28;20090;-64
2022/04/23 06:52:27;;;;;;;12.77;3.58;;;17.80;42.00;;;;;;5070512;28;20081;-67
2022/04/23 06:54:54;;;;;;;10.02;2.50;;;17.80;42.00;;;;;;5069081;28;20118;-66
2022/04/23 06:57:24;;;;;;;7.15;2.53;;;17.80;42.00;;;;;;5086427;28;20458;-65
2022/04/23 06:59:52;;;;;;;10.10;2.60;;;17.70;42.10;;;;;;5068959;28;20115;-65
2022/04/23 07:02:19;;;;;;;10.63;3.08;;;17.70;42.10;;;;;;5083918;28;20450;-66
2022/04/23 07:04:46;;;;;;;11.32;2.40;;;17.70;42.30;;;;;;5069071;28;20073;-66
2022/04/23 07:07:12;;;;;;;9.85;2.40;;;17.70;42.30;;;;;;5086752;28;20490;-64
2022/04/23 07:09:39;;;;;;;9.00;2.95;;;17.60;42.20;;;;;;5070701;28;20080;-65
2022/04/23 07:12:06;;;;;;;8.85;2.42;;;17.60;42.30;;;;;;5085521;28;20554;-65
2022/04/23 07:14:32;;;;;;;8.07;2.50;;;17.60;42.30;;;;;;5068862;28;20134;-64
2022/04/23 07:16:59;;;;;;;10.60;2.45;;;17.60;42.30;;;;;;5071799;28;20092;-66
2022/04/23 07:19:26;;;;;;;13.90;3.00;;;17.60;42.40;;;;;;5075361;28;20093;-65
2022/04/23 07:21:52;;;;;;;9.57;2.58;;;17.60;42.30;;;;;;5068156;28;20085;-64
2022/04/23 07:24:19;;;;;;;7.47;2.28;;;17.60;42.50;;;;;;5084571;28;20077;-64
2022/04/23 07:26:46;;;;;;;11.13;2.60;;;17.50;42.50;;;;;;5070278;28;20081;-65
2022/04/23 07:29:13;;;;;;;6.43;2.20;;;17.50;42.60;;;;;;5069359;28;20415;-67
2022/04/23 07:31:39;;;;;;;11.45;4.03;;;17.50;42.60;;;;;;5085137;28;20073;-64
2022/04/23 07:39:36;;;;;;;9.93;2.65;;;17.50;42.70;;;;;;5068569;28;20107;-64
2022/04/23 07:42:05;;;;;;;8.38;2.10;;;17.40;42.70;;;;;;5068095;28;20069;-64
2022/04/23 07:44:32;;;;;;;9.45;2.70;;;17.40;42.80;;;;;;5085573;28;20076;-64
2022/04/23 07:46:58;;;;;;;8.57;2.75;;;17.40;43.00;;;;;;5084954;28;20077;-63
2022/04/23 07:49:24;;;;;;;;;;;17.40;43.10;;;;;;5068672;28;20126;-64
2022/04/23 07:51:51;;;;;;;8.80;3.05;;;17.40;43.10;;;;;;5067588;28;19957;-64
2022/04/23 07:54:17;;;;;;;14.70;3.63;;;17.30;43.10;;;;;;5069882;28;20069;-64
2022/04/23 07:56:44;;;;;;;11.85;3.13;;;17.30;43.20;;;;;;5085278;28;20112;-64
2022/04/23 07:59:11;;;;;;;9.93;2.90;;;17.30;43.30;;;;;;5068997;28;20093;-67
2022/04/23 08:01:38;;;;;;;8.65;2.67;;;17.30;43.30;;;;;;5067927;28;20081;-66
2022/04/23 08:04:05;;;;;;;9.23;2.58;;;17.30;43.50;;;;;;5068299;28;20072;-64
2022/04/23 08:06:32;;;;;;;10.40;2.45;;;17.20;43.50;;;;;;5070355;28;20092;-64
2022/04/23 08:08:59;;;;;;;;;;;17.20;43.40;;;;;;5085777;28;20073;-64
2022/04/23 08:11:26;;;;;;;8.98;2.15;;;17.30;43.50;;;;;;5068261;28;20121;-64
2022/04/23 08:13:52;;;;;;;7.28;2.40;;;17.20;43.70;;;;;;5068124;28;20134;-64
2022/04/23 08:16:19;;;;;;;9.13;2.67;;;17.20;43.80;;;;;;5068859;28;20612;-66
2022/04/23 08:18:45;;;;;;;11.82;2.35;;;17.20;43.90;;;;;;5084436;28;20563;-64
2022/04/23 08:21:11;;;;;;;;;;;17.20;44.00;;;;;;5083259;28;20115;-64
2022/04/23 08:23:38;;;;;;;9.45;1.90;;;17.10;44.10;;;;;;5067752;28;20407;-66
2022/04/23 08:26:05;;;;;;;;;;;17.10;44.30;;;;;;5068565;28;20080;-64
2022/04/23 08:31:17;;;;;;;9.88;2.28;;;17.00;44.70;;;;;;5067928;28;20091;-66
2022/04/23 08:33:58;;;;;;;9.45;2.15;;;17.00;45.00;;;;;;5068062;28;20097;-65
2022/04/23 08:36:26;;;;;;;11.10;2.03;;;16.90;45.20;;;;;;5085608;28;20102;-66
2022/04/23 08:38:56;;;;;;;8.80;1.90;;;16.90;45.40;;;;;;5067289;28;20101;-65
2022/04/23 08:41:31;;;;;;;9.98;1.92;;;16.90;45.80;;;;;;5067493;28;20519;-68
2022/04/23 08:44:05;;;;;;;11.80;2.53;;;16.80;46.00;;;;;;5067566;28;20076;-64
2022/04/23 08:46:39;;;;;;;14.55;2.53;;;16.80;46.50;;;;;;5084280;28;20157;-65
2022/04/23 08:49:10;;;;;;;9.82;1.80;;;16.70;46.70;;;;;;5068958;28;20080;-65
2022/04/23 08:51:38;;;;;;;12.73;2.70;;;16.60;46.90;;;;;;5066511;28;20525;-65
2022/04/23 08:54:10;;;;;;;12.02;2.03;;;16.60;47.10;;;;;;5068138;28;20077;-66
2022/04/23 08:56:39;;;;;;;8.93;1.80;;;16.60;47.00;;;;;;5083710;28;20473;-65
2022/04/23 08:59:09;;;;;;;9.23;2.03;;;16.60;47.10;;;;;;5067313;28;20427;-68
2022/04/23 09:01:37;;;;;;;10.18;1.83;;;16.60;47.20;;;;;;5067107;28;20517;-63
2022/04/23 09:04:05;;;;;;;7.93;1.55;;;16.50;47.20;;;;;;5067689;28;20073;-67
2022/04/23 09:06:36;;;;;;;11.40;2.13;;;16.50;47.30;;;;;;5068198;28;20079;-67
2022/04/23 09:09:22;;;;;;;11.75;2.33;;;16.50;47.40;;;;;;5083871;28;20077;-66
2022/04/23 09:11:55;;;;;;;9.38;2.00;;;16.50;47.50;;;;;;5071911;28;20546;-65
2022/04/23 09:14:32;;;;;;;6.30;1.73;;;16.40;47.60;;;;;;5068512;28;20466;-64
2022/04/23 09:25:37;;;;;;;5.55;1.60;;;16.30;47.80;;;;;;5070396;28;20083;-65
2022/04/23 09:28:21;;;;;;;8.88;1.80;;;16.30;47.70;;;;;;5066990;28;20095;-65
2022/04/23 09:30:54;;;;;;;8.23;1.90;;;16.20;47.80;;;;;;5049577;28;20218;-64
2022/04/23 09:33:27;;;;;;;5.72;2.13;;;16.30;47.80;;;;;;5066774;28;20465;-69
2022/04/23 09:35:56;;;;;;;12.45;3.88;;;16.30;47.80;;;;;;5066341;28;20204;-67
2022/04/23 09:38:23;;;;;;;6.90;1.80;;;16.30;47.90;;;;;;5084185;28;20164;-65
2022/04/23 09:41:21;;;;;;;12.38;2.22;;;16.30;47.80;;;;;;5071910;28;20135;-68
2022/04/23 09:44:05;;;;;;;9.45;2.63;;;16.30;47.80;;;;;;5071168;28;20218;-66
2022/04/23 09:46:48;;;;;;;10.00;2.50;;;16.20;47.90;;;;;;5069499;28;20077;-65
2022/04/23 09:49:23;;;;;;;12.05;3.95;;;16.20;47.90;;;;;;5072170;28;20076;-65
2022/04/23 09:52:09;;;;;;;10.68;2.60;;;16.20;48.00;;;;;;5069644;28;20072;-65
2022/04/23 09:54:38;;;;;;;11.40;2.28;;;16.20;47.90;;;;;;5069715;28;20073;-65
2022/04/23 09:57:05;;;;;;;12.40;2.10;;;16.20;47.90;;;;;;5086422;28;20084;-66
2022/04/23 09:59:31;;;;;;;11.98;2.28;;;16.20;48.00;;;;;;5070853;28;20469;-66
2022/04/23 10:01:58;;;;;;;10.15;1.92;;;16.20;48.10;;;;;;5070056;28;20072;-66
2022/04/23 10:04:25;;;;;;;;;;;16.20;48.10;;;;;;5070726;28;20069;-68
2022/04/23 10:06:52;;;;;;;6.90;1.70;;;16.20;48.20;;;;;;5087314;28;19957;-68
2022/04/23 10:09:24;;;;;;;8.50;2.03;;;16.20;48.30;;;;;;5071259;28;20091;-65
2022/04/23 10:11:55;;;;;;;7.00;2.00;;;16.20;48.30;;;;;;5086117;28;20147;-66
2022/04/23 10:14:24;;;;;;;5.90;1.88;;;16.10;48.30;;;;;;5069355;28;20085;-66
2022/04/23 10:16:53;;;;;;;3.88;1.42;;;16.10;48.30;;;;;;5086137;28;20088;-69
2022/04/23 10:19:22;;;;;;;4.10;1.60;;;16.20;48.30;;;;;;5071322;28;20565;-66
2022/04/23 10:22:19;;;;;;;7.90;1.85;;;16.20;49.10;;;;;;5069176;28;20186;-68
2022/04/23 10:25:25;;;;;;;7.95;1.80;;;16.20;48.50;;;;;;5069363;28;20065;-66
2022/04/23 10:27:57;;;;;;;13.48;2.63;;;16.20;48.70;;;;;;5084656;28;20064;-65
2022/04/23 10:30:27;;;;;;;8.73;1.85;;;16.20;49.50;;;;;;5087114;28;20125;-67
2022/04/23 10:32:53;;;;;;;9.88;1.50;;;16.10;50.20;;;;;;5068762;28;20451;-65
2022/04/23 10:35:20;;;;;;;8.88;2.05;;;16.10;50.80;;;;;;5070806;28;20178;-66
2022/04/23 10:37:48;;;;;;;10.75;2.63;;;16.10;51.20;;;;;;5071115;28;20558;-69
2022/04/23 10:40:19;;;;;;;7.30;1.65;;;16.00;51.50;;;;;;5069790;28;21507;-68
2022/04/23 10:43:06;;;;;;;10.95;2.20;;;15.90;51.80;;;;;;5069419;28;20241;-66
2022/04/23 10:45:33;;;;;;;10.80;2.10;;;15.90;52.00;;;;;;5069312;28;20069;-65
2022/04/23 10:48:22;;;;;;;10.00;2.00;;;15.90;52.10;;;;;;5070073;28;20084;-65
2022/04/23 10:51:21;;;;;;;9.43;2.53;;;15.90;52.20;;;;;;5067960;28;20078;-67
2022/04/23 10:53:47;;;;;;;6.18;1.63;;;15.90;52.20;;;;;;5069870;28;20244;-66
2022/04/23 10:56:15;;;;;;;15.02;2.30;;;15.80;52.20;;;;;;5070180;28;20131;-65
2022/04/23 10:58:42;;;;;;;9.80;2.17;;;15.80;52.00;;;;;;5065841;28;20172;-65
2022/04/23 11:01:21;;;;;;;8.45;2.13;;;15.90;52.00;;;;;;5069585;28;20483;-65
2022/04/23 11:03:58;;;;;;;11.45;3.17;;;15.80;51.90;;;;;;5085144;28;20068;-65
2022/04/23 11:12:24;;;;;;;9.23;2.78;;;15.80;51.50;;;;;;5068632;28;20077;-65
2022/04/23 11:14:56;;;;;;;13.63;2.38;;;15.90;51.30;;;;;;5068881;28;20092;-66
2022/04/23 11:17:32;;;;;;;10.05;3.03;;;15.90;51.00;;;;;;5071309;28;20074;-68
2022/04/23 11:20:00;;;;;;;7.68;2.00;;;15.90;50.90;;;;;;5089045;28;20142;-66
2022/04/23 11:22:27;;;;;;;9.27;2.00;;;15.90;50.50;;;;;;5068626;28;20147;-64
2022/04/23 11:24:53;;;;;;;13.63;2.60;;;15.90;50.40;;;;;;5085577;28;20073;-66
2022/04/23 11:27:27;;;;;;;5.72;1.77;;;16.00;50.20;;;;;;5084921;28;20122;-66
2022/04/23 11:29:54;;;;;;;10.13;2.03;;;16.10;50.20;;;;;;5085455;28;20083;-66
2022/04/23 11:32:28;;;;;;;10.95;2.25;;;16.10;50.20;;;;;;5068869;28;20072;-65
2022/04/23 11:35:05;;;;;;;8.02;2.25;;;16.10;50.40;;;;;;5067775;28;20116;-65
2022/04/23 11:37:39;;;;;;;11.98;2.00;;;16.00;50.60;;;;;;5068933;28;21434;-65
2022/04/23 11:40:16;;;;;;;10.82;2.08;;;16.10;50.80;;;;;;5067814;28;20180;-66
2022/04/23 11:42:44;;;;;;;11.35;2.20;;;16.10;50.70;;;;;;5066432;28;20069;-65
2022/04/23 11:45:12;;;;;;;9.48;2.22;;;16.10;50.60;;;;;;5068858;28;20069;-66
2022/04/23 11:47:39;;;;;;;7.82;1.80;;;16.10;50.40;;;;;;5068672;28;20095;-64
2022/04/23 11:50:16;;;;;;;10.13;1.92;;;16.10;50.40;;;;;;5084567;28;20108;-67
2022/04/23 11:52:45;;;;;;;8.32;1.80;;;16.10;50.30;;;;;;5084558;28;20100;-65
2022/04/23 11:55:23;;;;;;;8.15;2.05;;;16.10;50.30;;;;;;5083375;28;20080;-67
2022/04/23 11:58:00;;;;;;;9.23;2.40;;;16.10;50.10;;;;;;5068744;28;20072;-65
2022/04/23 12:00:27;;;;;;;10.60;2.50;;;16.10;50.20;;;;;;5085116;28;20146;-65
2022/04/23 12:02:54;;;;;;;8.50;1.88;;;15.90;50.50;;;;;;5083530;28;20549;-66
2022/04/23 12:05:32;;;;;;;11.88;2.42;;;15.90;50.90;;;;;;5068540;28;20080;-65
2022/04/23 12:07:59;;;;;;;18.20;2.85;;;15.90;50.90;;;;;;5070801;28;20148;-65
2022/04/23 12:10:31;;;;;;;8.55;2.00;;;15.90;50.90;;;;;;5068392;28;20219;-65
2022/04/23 12:13:06;;;;;;;12.70;2.40;;;15.90;51.20;;;;;;5067515;28;20179;-66
2022/04/23 12:15:33;;;;;;;10.20;2.40;;;15.80;51.30;;;;;;5068874;28;20461;-68
2022/04/23 12:18:00;;;;;;;10.93;2.00;;;15.80;51.50;;;;;;5068339;28;20088;-68
2022/04/23 12:20:26;;;;;;;;;;;15.70;51.80;;;;;;5084898;28;20163;-65
2022/04/23 12:23:05;;;;;;;9.20;1.80;;;15.70;52.00;;;;;;5069486;28;19979;-64
2022/04/23 12:25:33;;;;;;;14.05;2.58;;;15.60;52.10;;;;;;5068824;28;20076;-64
2022/04/23 12:42:07;;;;;;;9.57;2.25;;;15.40;52.60;;;;;;5069054;28;20076;-68
2022/04/23 12:44:37;;;;;;;11.48;2.50;;;15.30;52.70;;;;;;5067714;28;20087;-68
2022/04/23 12:47:06;;;;;;;10.60;2.10;;;15.40;52.70;;;;;;5067390;28;20111;-64
2022/04/23 12:50:00;;;;;;;12.80;2.22;;;15.40;52.70;;;;;;5067388;28;20446;-65
2022/04/23 12:52:53;;;;;;;16.98;2.83;;;15.40;52.70;;;;;;5067493;28;20549;-65
2022/04/23 12:55:26;;;;;;;12.93;2.40;;;15.40;52.80;;;;;;5066867;28;20215;-65
2022/04/23 12:58:06;;;;;;;12.18;2.30;;;15.30;52.70;;;;;;5066424;28;20130;-65
2022/04/23 13:00:40;;;;;;;11.88;2.40;;;15.30;52.80;;;;;;5084239;28;20124;-64
2022/04/23 13:03:41;;;;;;;9.90;2.42;;;15.30;52.70;;;;;;5067025;28;20115;-64
2022/04/23 13:08:54;;;;;;;14.80;2.70;;;15.30;52.50;;;;;;5067996;28;20081;-65
2022/04/23 13:08:54;;;;;;;6.82;1.98;;;15.30;52.50;;;;;;5070856;28;20073;-64
2022/04/23 13:11:24;;;;;;;9.20;2.40;;;15.30;52.50;;;;;;5066810;28;20073;-66
2022/04/23 13:13:55;;;;;;;18.35;2.17;;;15.40;52.50;;;;;;5084641;28;20128;-65
2022/04/23 13:16:25;;;;;;;10.90;2.22;;;15.30;52.60;;;;;;5087736;28;20069;-64
2022/04/23 13:18:54;;;;;;;11.52;2.47;;;15.30;52.50;;;;;;5087316;28;20471;-64
2022/04/23 13:21:22;;;;;;;15.43;1.98;;;15.20;52.30;;;;;;5069593;28;20172;-64
2022/04/23 13:23:51;;;;;;;12.38;2.63;;;15.20;52.40;;;;;;5071641;28;20073;-64
2022/04/23 13:26:19;;;;;;;9.05;2.42;;;15.30;52.30;;;;;;5070891;28;20599;-65
2022/04/23 13:28:46;;;;;;;10.40;3.60;;;15.30;52.00;;;;;;5087606;28;20088;-65
2022/04/23 13:31:13;;;;;;;18.48;5.75;;;15.30;51.80;;;;;;5092193;28;20076;-66